createdAt,value
2017-05-12T00:00:52.157Z,6.35
2017-05-12T00:03:20.476Z,6.35
2017-05-12T00:05:49.546Z,6.58
2017-05-12T00:08:17.938Z,5.55
2017-05-12T00:16:39.462Z,9.62
2017-05-12T00:19:08.545Z,6.95
2017-05-12T00:21:36.941Z,5.72
2017-05-12T00:24:05.364Z,7.03
2017-05-12T00:26:33.755Z,7.67
2017-05-12T00:29:02.114Z,10.08
2017-05-12T00:31:31.002Z,7.32
2017-05-12T00:33:59.333Z,6.13
2017-05-12T00:36:27.654Z,7.40
2017-05-12T00:38:56.068Z,8.13
2017-05-12T00:41:24.402Z,6.98
2017-05-12T00:43:52.723Z,8.03
2017-05-12T00:46:21.227Z,7.10
2017-05-12T00:48:50.292Z,9.70
2017-05-12T00:51:19.756Z,7.67
2017-05-12T00:53:48.356Z,7.15
2017-05-12T00:56:18.741Z,7.72
2017-05-12T00:58:47.347Z,8.22
2017-05-12T01:01:18.339Z,8.48
2017-05-12T01:03:46.691Z,9.22
2017-05-12T01:06:15.025Z,8.03
2017-05-12T01:08:43.351Z,8.27
2017-05-12T01:11:11.877Z,8.35
2017-05-12T01:13:40.209Z,7.35
2017-05-12T01:16:08.545Z,8.55
2017-05-12T01:18:37.065Z,8.58
2017-05-12T01:21:05.409Z,8.38
2017-05-12T01:23:33.748Z,8.35
2017-05-12T01:26:02.349Z,8.50
2017-05-12T01:28:31.426Z,8.25
2017-05-12T01:30:59.763Z,7.12
2017-05-12T01:33:28.141Z,8.37
2017-05-12T01:35:56.710Z,9.60
2017-05-12T01:38:25.046Z,8.70
2017-05-12T01:40:53.641Z,8.03
2017-05-12T01:43:22.750Z,8.00
2017-05-12T01:45:51.098Z,8.08
2017-05-12T01:48:19.597Z,9.02
2017-05-12T01:50:48.667Z,8.35
2017-05-12T01:53:17.008Z,8.18
2017-05-12T01:55:45.651Z,8.33
2017-05-12T01:58:14.748Z,9.27
2017-05-12T02:00:43.882Z,11.07
2017-05-12T02:03:12.352Z,9.62
2017-05-12T02:05:40.708Z,8.32
2017-05-12T02:08:09.792Z,8.93
2017-05-12T02:10:38.909Z,9.37
2017-05-12T02:13:07.255Z,9.50
2017-05-12T02:15:35.664Z,9.82
2017-05-12T02:18:04.069Z,9.52
2017-05-12T02:20:32.424Z,11.98
2017-05-12T02:23:00.797Z,10.85
2017-05-12T02:25:29.285Z,11.22
2017-05-12T02:27:57.615Z,10.88
2017-05-12T02:30:25.961Z,10.82
2017-05-12T02:32:54.473Z,10.85
2017-05-12T02:35:22.821Z,11.72
2017-05-12T02:37:51.180Z,11.43
2017-05-12T02:40:19.553Z,12.70
2017-05-12T02:42:47.884Z,11.60
2017-05-12T02:45:16.258Z,11.60
2017-05-12T02:47:44.921Z,13.48
2017-05-12T02:50:13.359Z,11.88
2017-05-12T02:52:41.708Z,12.65
2017-05-12T02:55:10.200Z,15.18
2017-05-12T02:57:39.321Z,14.27
2017-05-12T03:00:07.665Z,12.63
2017-05-12T03:02:36.049Z,13.17
2017-05-12T03:05:04.380Z,14.65
2017-05-12T03:07:32.734Z,15.42
2017-05-12T03:10:01.258Z,14.92
2017-05-12T03:12:29.591Z,13.77
2017-05-12T03:14:58.059Z,15.45
2017-05-12T03:17:26.810Z,15.45
2017-05-12T03:19:55.176Z,14.52
2017-05-12T03:22:23.541Z,17.33
2017-05-12T03:24:52.087Z,15.72
2017-05-12T03:27:20.494Z,16.55
2017-05-12T03:29:48.844Z,15.75
2017-05-12T03:32:17.221Z,15.30
2017-05-12T03:34:46.304Z,15.87
2017-05-12T03:37:15.412Z,15.38
2017-05-12T03:39:43.848Z,17.63
2017-05-12T03:42:12.171Z,17.63
2017-05-12T03:44:41.255Z,17.33
2017-05-12T03:47:09.636Z,19.33
2017-05-12T03:49:37.965Z,17.98
2017-05-12T03:52:06.341Z,15.73
2017-05-12T03:54:34.722Z,18.65
2017-05-12T03:57:03.801Z,16.85
2017-05-12T03:59:32.143Z,19.32
2017-05-12T04:02:01.558Z,17.08
2017-05-12T04:04:29.900Z,18.18
2017-05-12T04:06:58.237Z,19.13
2017-05-12T04:09:26.793Z,19.07
2017-05-12T04:11:55.126Z,18.45
2017-05-12T04:14:23.481Z,19.82
2017-05-12T04:16:52.473Z,18.73
2017-05-12T04:19:20.815Z,17.52
2017-05-12T04:21:49.164Z,19.20
2017-05-12T04:24:18.289Z,19.62
2017-05-12T04:26:46.636Z,18.82
2017-05-12T04:29:14.991Z,18.92
2017-05-12T04:31:43.765Z,19.72
2017-05-12T04:34:12.112Z,20.43
2017-05-12T04:36:41.085Z,19.37
2017-05-12T04:39:10.221Z,20.45
2017-05-12T04:41:38.544Z,21.32
2017-05-12T04:44:06.923Z,20.02
2017-05-12T04:46:35.328Z,19.32
2017-05-12T04:49:04.421Z,22.15
2017-05-12T04:51:32.760Z,19.47
2017-05-12T04:54:01.187Z,21.80
2017-05-12T04:56:29.540Z,19.03
2017-05-12T04:58:58.165Z,25.95
2017-05-12T05:01:26.748Z,21.83
2017-05-12T05:03:55.077Z,23.10
2017-05-12T05:06:23.403Z,21.50
2017-05-12T05:08:51.772Z,21.50
2017-05-12T05:11:21.512Z,22.28
2017-05-12T05:13:49.872Z,21.72
2017-05-12T05:16:18.479Z,22.32
2017-05-12T05:18:46.827Z,20.53
2017-05-12T05:21:15.164Z,21.80
2017-05-12T05:23:44.108Z,23.22
2017-05-12T05:26:12.530Z,23.47
2017-05-12T05:28:40.865Z,21.88
2017-05-12T05:31:09.356Z,21.75
2017-05-12T05:33:37.952Z,23.30
2017-05-12T05:36:07.223Z,21.50
2017-05-12T05:38:35.746Z,21.38
2017-05-12T05:41:04.096Z,22.28
2017-05-12T05:43:32.445Z,23.37
2017-05-12T05:46:01.047Z,24.27
2017-05-12T05:48:29.380Z,24.18
2017-05-12T05:50:58.456Z,22.27
2017-05-12T05:53:26.857Z,22.42
2017-05-12T05:55:55.927Z,22.28
2017-05-12T05:58:24.305Z,26.40
2017-05-12T06:00:53.055Z,23.73
2017-05-12T06:03:21.392Z,24.00
2017-05-12T06:05:50.454Z,24.53
2017-05-12T06:08:18.954Z,24.43
2017-05-12T06:10:47.292Z,23.58
2017-05-12T06:13:15.644Z,24.50
2017-05-12T06:15:44.118Z,23.87
2017-05-12T06:18:12.461Z,24.17
2017-05-12T06:20:40.812Z,23.75
2017-05-12T06:23:09.360Z,25.07
2017-05-12T06:25:37.709Z,24.73
2017-05-12T06:28:06.094Z,24.52
2017-05-12T06:30:34.570Z,22.55
2017-05-12T06:33:03.661Z,26.23
2017-05-12T06:35:32.004Z,27.25
2017-05-12T06:38:00.689Z,25.15
2017-05-12T06:40:29.029Z,24.83
2017-05-12T06:42:57.362Z,25.07
2017-05-12T06:45:26.084Z,24.57
2017-05-12T06:47:54.440Z,24.67
2017-05-12T06:50:23.524Z,24.78
2017-05-12T06:52:51.904Z,24.98
2017-05-12T06:55:20.247Z,24.63
2017-05-12T06:57:48.592Z,25.47
2017-05-12T07:00:17.176Z,24.35
2017-05-12T07:02:46.263Z,25.47
2017-05-12T07:05:14.782Z,25.43
2017-05-12T07:07:43.161Z,25.77
2017-05-12T07:10:11.501Z,24.62
2017-05-12T07:12:40.576Z,24.70
2017-05-12T07:15:09.305Z,24.85
2017-05-12T07:17:37.660Z,26.70
2017-05-12T07:20:06.734Z,25.55
2017-05-12T07:22:35.448Z,29.60
2017-05-12T07:25:03.777Z,27.25
2017-05-12T07:27:32.117Z,26.08
2017-05-12T07:30:00.677Z,28.08
2017-05-12T07:32:29.765Z,27.43
2017-05-12T07:34:58.859Z,25.43
2017-05-12T07:37:28.166Z,27.25
2017-05-12T07:39:57.276Z,26.32
2017-05-12T07:42:25.610Z,26.25
2017-05-12T07:44:53.989Z,26.30
2017-05-12T07:47:22.331Z,28.30
2017-05-12T07:49:50.678Z,28.17
2017-05-12T07:52:19.946Z,29.00
2017-05-12T07:54:48.280Z,29.40
2017-05-12T07:57:16.614Z,30.73
2017-05-12T07:59:44.983Z,27.98
2017-05-12T08:02:13.316Z,29.42
2017-05-12T08:04:41.649Z,29.85
2017-05-12T08:07:10.971Z,29.37
2017-05-12T08:09:39.321Z,27.95
2017-05-12T08:12:07.686Z,27.50
2017-05-12T08:14:36.237Z,31.12
2017-05-12T08:17:04.565Z,31.60
2017-05-12T08:19:33.658Z,28.88
2017-05-12T08:22:02.144Z,29.40
2017-05-12T08:24:31.225Z,30.87
2017-05-12T08:26:59.569Z,31.10
2017-05-12T08:29:27.936Z,31.25
2017-05-12T08:31:56.267Z,29.73
2017-05-12T08:34:25.344Z,30.20
2017-05-12T08:36:54.101Z,33.27
2017-05-12T08:39:22.470Z,31.40
2017-05-12T08:41:50.799Z,30.93
2017-05-12T08:44:20.125Z,32.65
2017-05-12T08:46:48.481Z,31.20
2017-05-12T08:49:17.584Z,32.72
2017-05-12T08:51:46.695Z,33.17
2017-05-12T08:54:15.023Z,33.53
2017-05-12T08:56:43.384Z,32.42
2017-05-12T08:59:11.939Z,30.27
2017-05-12T09:01:40.277Z,34.72
2017-05-12T09:04:08.677Z,36.67
2017-05-12T09:06:38.084Z,31.80
2017-05-12T09:09:07.168Z,31.60
2017-05-12T09:11:36.261Z,33.62
2017-05-12T09:14:05.429Z,32.30
2017-05-12T09:16:34.541Z,34.82
2017-05-12T09:19:02.868Z,33.92
2017-05-12T09:21:31.457Z,33.32
2017-05-12T09:23:59.799Z,33.17
2017-05-12T09:26:28.117Z,34.25
2017-05-12T09:28:56.869Z,32.48
2017-05-12T09:31:25.208Z,32.80
2017-05-12T09:33:53.541Z,31.85
2017-05-12T09:36:21.940Z,35.42
2017-05-12T09:38:50.286Z,30.67
2017-05-12T09:41:18.646Z,33.13
2017-05-12T09:43:48.062Z,32.37
2017-05-12T09:46:16.450Z,31.12
2017-05-12T09:48:44.791Z,31.65
2017-05-12T09:51:13.301Z,32.78
2017-05-12T09:53:41.734Z,29.40
2017-05-12T09:56:10.071Z,31.27
2017-05-12T09:58:38.468Z,30.35
2017-05-12T10:01:06.822Z,28.98
2017-05-12T10:03:35.173Z,30.50
2017-05-12T10:06:04.292Z,30.00
2017-05-12T10:08:32.631Z,29.07
2017-05-12T10:11:00.977Z,30.25
2017-05-12T10:13:29.344Z,29.73
2017-05-12T10:15:57.672Z,29.08
2017-05-12T10:18:26.001Z,29.95
2017-05-12T10:20:54.648Z,28.23
2017-05-12T10:23:23.744Z,31.03
2017-05-12T10:25:52.076Z,31.63
2017-05-12T10:28:20.918Z,29.28
2017-05-12T10:30:49.315Z,28.83
2017-05-12T10:33:17.647Z,31.22
2017-05-12T10:35:46.317Z,29.40
2017-05-12T10:38:14.696Z,26.72
2017-05-12T10:40:43.028Z,30.25
2017-05-12T10:43:11.439Z,29.57
2017-05-12T10:45:39.779Z,29.43
2017-05-12T10:48:08.113Z,28.77
2017-05-12T10:50:37.342Z,28.42
2017-05-12T10:53:06.420Z,28.63
2017-05-12T10:55:34.814Z,28.73
2017-05-12T10:58:04.116Z,28.67
2017-05-12T11:00:32.459Z,24.53
2017-05-12T11:03:00.804Z,28.67
2017-05-12T11:05:29.279Z,26.32
2017-05-12T11:07:57.612Z,26.35
2017-05-12T11:10:25.938Z,25.48
2017-05-12T11:12:54.593Z,27.08
2017-05-12T11:15:23.759Z,28.58
2017-05-12T11:17:52.120Z,30.78
2017-05-12T11:20:20.866Z,31.50
2017-05-12T11:22:49.204Z,30.63
2017-05-12T11:25:17.542Z,30.70
2017-05-12T11:27:45.996Z,27.60
2017-05-12T11:30:14.331Z,30.15
2017-05-12T11:32:42.654Z,26.97
2017-05-12T11:35:11.042Z,29.88
2017-05-12T11:37:39.373Z,28.70
2017-05-12T11:40:07.721Z,29.18
2017-05-12T11:42:36.186Z,26.97
2017-05-12T11:45:04.520Z,30.80
2017-05-12T11:47:33.603Z,29.57
2017-05-12T11:50:02.219Z,28.18
2017-05-12T11:52:30.567Z,28.78
2017-05-12T11:54:58.906Z,28.38
2017-05-12T11:57:27.412Z,30.02
2017-05-12T11:59:55.734Z,27.72
2017-05-12T12:02:24.069Z,26.62
2017-05-12T12:04:52.536Z,25.92
2017-05-12T12:07:20.898Z,24.30
2017-05-12T12:09:49.251Z,25.90
2017-05-12T12:12:17.629Z,26.25
2017-05-12T12:14:46.000Z,26.40
2017-05-12T12:17:14.352Z,26.53
2017-05-12T12:19:43.088Z,26.87
2017-05-12T12:22:11.424Z,23.42
2017-05-12T12:24:40.534Z,26.12
2017-05-12T12:27:08.992Z,25.38
2017-05-12T12:29:38.067Z,27.72
2017-05-12T12:32:06.409Z,25.53
2017-05-12T12:34:34.799Z,25.72
2017-05-12T12:37:03.148Z,22.50
2017-05-12T12:39:31.528Z,23.55
2017-05-12T12:41:59.955Z,22.23
2017-05-12T12:44:28.373Z,24.70
2017-05-12T12:46:56.727Z,25.12
2017-05-12T12:49:25.406Z,23.80
2017-05-12T12:51:53.860Z,25.03
2017-05-12T12:54:22.365Z,25.73
2017-05-12T12:56:50.847Z,22.92
2017-05-12T12:59:19.201Z,23.02
2017-05-12T13:01:47.548Z,27.63
2017-05-12T13:04:16.087Z,24.75
2017-05-12T13:06:45.604Z,24.78
2017-05-12T13:09:14.689Z,21.27
2017-05-12T13:11:43.242Z,23.15
2017-05-12T13:14:11.618Z,22.37
2017-05-12T13:16:39.965Z,24.55
2017-05-12T13:19:08.689Z,24.52
2017-05-12T13:24:12.768Z,23.06
2017-05-12T13:26:41.137Z,21.93
2017-05-12T13:29:10.216Z,20.88
2017-05-12T13:31:38.837Z,20.44
2017-05-12T13:34:07.161Z,23.38
2017-05-12T13:36:35.650Z,21.96
2017-05-12T13:39:04.101Z,21.38
2017-05-12T13:41:32.487Z,20.80
2017-05-12T13:44:00.833Z,22.96
2017-05-12T13:46:29.357Z,18.27
2017-05-12T13:48:57.689Z,21.88
2017-05-12T13:51:26.034Z,20.03
2017-05-12T13:53:55.265Z,19.60
2017-05-12T13:56:23.612Z,21.86
2017-05-12T13:58:52.708Z,22.16
2017-05-12T14:01:21.201Z,21.18
2017-05-12T14:03:50.291Z,19.82
2017-05-12T14:06:19.384Z,19.04
2017-05-12T14:08:48.650Z,18.20
2017-05-12T14:11:17.001Z,18.10
2017-05-12T14:13:45.333Z,17.88
2017-05-12T14:16:14.780Z,21.48
2017-05-12T14:18:43.112Z,20.78
2017-05-12T14:21:11.452Z,19.72
2017-05-12T14:23:39.923Z,20.84
2017-05-12T14:26:08.253Z,19.70
2017-05-12T14:28:37.379Z,19.77
2017-05-12T14:31:06.065Z,21.70
2017-05-12T14:33:34.406Z,19.18
2017-05-12T14:36:02.744Z,19.94
2017-05-12T14:38:31.499Z,18.78
2017-05-12T14:41:00.583Z,17.56
2017-05-12T14:43:29.675Z,16.87
2017-05-12T14:45:59.131Z,18.44
2017-05-12T14:48:27.469Z,17.76
2017-05-12T14:50:55.819Z,18.82
2017-05-12T14:53:24.286Z,16.88
2017-05-12T14:55:52.658Z,20.52
2017-05-12T14:58:21.004Z,16.78
2017-05-12T15:00:49.488Z,16.24
2017-05-12T15:03:17.851Z,17.08
2017-05-12T15:05:46.213Z,15.14
2017-05-12T15:08:15.476Z,16.28
2017-05-12T15:10:43.815Z,17.42
2017-05-12T15:13:12.160Z,18.22
2017-05-12T15:15:41.276Z,17.37
2017-05-12T15:18:09.633Z,16.86
2017-05-12T15:20:37.970Z,16.90
2017-05-12T15:23:06.496Z,14.70
2017-05-12T15:25:34.844Z,15.62
2017-05-12T15:28:03.192Z,16.34
2017-05-12T15:30:31.614Z,15.23
2017-05-12T15:32:59.984Z,16.68
2017-05-12T15:35:28.348Z,16.02
2017-05-12T15:37:56.816Z,15.94
2017-05-12T15:40:25.157Z,20.16
2017-05-12T15:42:53.522Z,21.24
2017-05-12T15:45:22.223Z,19.86
2017-05-12T15:47:50.661Z,18.84
2017-05-12T15:50:19.006Z,20.47
2017-05-12T15:52:47.540Z,19.93
2017-05-12T15:55:15.894Z,21.15
2017-05-12T15:57:44.256Z,20.18
2017-05-12T16:00:12.894Z,20.53
2017-05-12T16:02:41.245Z,21.80
2017-05-12T16:05:09.598Z,18.62
2017-05-12T16:07:38.134Z,20.25
2017-05-12T16:10:06.484Z,18.07
2017-05-12T16:12:34.845Z,21.20
2017-05-12T16:15:03.593Z,18.93
2017-05-12T16:17:31.956Z,20.35
2017-05-12T16:20:00.301Z,22.03
2017-05-12T16:22:28.828Z,18.03
2017-05-12T16:24:57.182Z,20.32
2017-05-12T16:27:25.530Z,18.88
2017-05-12T16:29:54.218Z,20.20
2017-05-12T16:32:22.568Z,18.68
2017-05-12T16:34:51.360Z,19.17
2017-05-12T16:37:19.747Z,20.27
2017-05-12T16:39:48.118Z,19.42
2017-05-12T16:42:16.534Z,18.33
2017-05-12T16:44:44.921Z,22.47
2017-05-12T16:47:13.272Z,18.65
2017-05-12T16:49:41.623Z,21.27
2017-05-12T16:52:10.040Z,19.87
2017-05-12T16:54:38.437Z,19.12
2017-05-12T16:57:07.532Z,16.57
2017-05-12T16:59:36.709Z,21.80
2017-05-12T17:02:05.076Z,20.92
2017-05-12T17:04:33.529Z,20.73
2017-05-12T17:07:02.249Z,19.25
2017-05-12T17:09:30.599Z,20.30
2017-05-12T17:11:59.044Z,19.27
2017-05-12T17:14:27.661Z,21.33
2017-05-12T17:16:55.997Z,19.67
2017-05-12T17:19:25.081Z,19.28
2017-05-12T17:21:54.292Z,22.77
2017-05-12T17:24:22.634Z,20.65
2017-05-12T17:26:51.085Z,20.77
2017-05-12T17:29:19.611Z,20.40
2017-05-12T17:31:47.992Z,20.30
2017-05-12T17:34:16.371Z,20.75
2017-05-12T17:36:44.954Z,19.80
2017-05-12T17:39:13.304Z,20.22
2017-05-12T17:41:41.657Z,20.40
2017-05-12T17:44:10.329Z,23.03
2017-05-12T17:46:38.665Z,20.97
2017-05-12T17:49:07.015Z,17.48
2017-05-12T17:51:35.668Z,19.08
2017-05-12T17:54:05.061Z,19.52
2017-05-12T17:56:33.580Z,20.12
2017-05-12T17:59:02.023Z,19.20
2017-05-12T18:01:30.504Z,20.42
2017-05-12T18:03:58.848Z,18.82
2017-05-12T18:06:27.620Z,18.68
2017-05-12T18:08:56.045Z,19.75
2017-05-12T18:11:24.437Z,18.95
2017-05-12T18:13:52.973Z,19.00
2017-05-12T18:16:21.364Z,17.07
2017-05-12T18:18:49.746Z,19.00
2017-05-12T18:21:18.336Z,18.47
2017-05-12T18:23:46.705Z,19.22
2017-05-12T18:26:25.356Z,16.48
2017-05-12T18:28:53.997Z,17.67
2017-05-12T18:31:22.756Z,15.67
2017-05-12T18:33:51.110Z,17.93
2017-05-12T18:36:28.206Z,18.18
2017-05-12T18:38:57.881Z,19.22
2017-05-12T18:41:26.435Z,21.90
2017-05-12T18:43:54.812Z,21.78
2017-05-12T18:46:23.155Z,24.18
2017-05-12T18:48:51.842Z,25.15
2017-05-12T18:51:20.218Z,27.95
2017-05-12T18:53:49.192Z,27.92
2017-05-12T18:56:18.548Z,27.05
2017-05-12T18:58:56.443Z,31.62
2017-05-12T19:01:25.610Z,29.02
2017-05-12T19:03:53.967Z,28.58
2017-05-12T19:06:22.738Z,27.73
2017-05-12T19:08:59.280Z,27.62
2017-05-12T19:11:28.246Z,27.52
2017-05-12T19:13:56.609Z,26.48
2017-05-12T19:16:25.121Z,28.18
2017-05-12T19:18:53.487Z,28.73
2017-05-12T19:21:22.134Z,27.10
2017-05-12T19:23:51.847Z,27.77
2017-05-12T19:26:31.587Z,28.25
2017-05-12T19:29:07.178Z,27.35
2017-05-12T19:31:37.789Z,28.20
2017-05-12T19:34:12.364Z,28.03
2017-05-12T19:36:41.626Z,28.48
2017-05-12T19:39:11.895Z,27.32
2017-05-12T19:41:40.456Z,29.93
2017-05-12T19:44:08.830Z,30.38
2017-05-12T19:46:37.182Z,27.62
2017-05-12T19:49:05.617Z,30.90
2017-05-12T19:51:34.700Z,28.83
2017-05-12T19:54:03.957Z,29.82
2017-05-12T19:56:33.037Z,30.70
2017-05-12T19:59:01.725Z,30.90
2017-05-12T20:01:30.230Z,28.28
2017-05-12T20:03:58.627Z,30.42
2017-05-12T20:06:26.965Z,29.70
2017-05-12T20:08:55.692Z,31.60
2017-05-12T20:11:24.212Z,29.20
2017-05-12T20:13:52.548Z,31.30
2017-05-12T20:16:21.056Z,29.62
2017-05-12T20:18:49.766Z,33.27
2017-05-12T20:21:18.105Z,31.87
2017-05-12T20:23:47.220Z,29.92
2017-05-12T20:26:16.495Z,32.28
2017-05-12T20:28:45.886Z,31.07
2017-05-12T20:31:14.245Z,33.30
2017-05-12T20:33:43.022Z,33.58
2017-05-12T20:36:11.397Z,34.63
2017-05-12T20:38:39.720Z,32.32
2017-05-12T20:41:08.334Z,34.62
2017-05-12T20:43:36.676Z,32.03
2017-05-12T20:46:05.960Z,34.90
2017-05-12T20:48:34.516Z,34.20
2017-05-12T20:51:02.844Z,37.17
2017-05-12T20:53:31.965Z,35.02
2017-05-12T20:56:00.553Z,36.20
2017-05-12T20:58:28.904Z,34.73
2017-05-12T21:00:58.785Z,36.92
2017-05-12T21:03:27.274Z,35.48
2017-05-12T21:05:55.655Z,35.78
2017-05-12T21:08:26.418Z,36.12
2017-05-12T21:10:56.310Z,38.13
2017-05-12T21:13:24.702Z,35.47
2017-05-12T21:15:53.602Z,35.53
2017-05-12T21:18:22.901Z,36.75
2017-05-12T21:20:53.906Z,36.67
2017-05-12T21:23:22.633Z,34.75
2017-05-12T21:25:51.072Z,37.15
2017-05-12T21:28:19.450Z,37.13
2017-05-12T21:30:47.968Z,35.98
2017-05-12T21:33:17.046Z,37.20
2017-05-12T21:35:45.691Z,41.97
2017-05-12T21:38:14.353Z,37.27
2017-05-12T21:40:42.705Z,37.97
2017-05-12T21:43:11.142Z,40.22
2017-05-12T21:45:40.111Z,38.05
2017-05-12T21:48:08.472Z,41.53
2017-05-12T21:50:36.809Z,40.70
2017-05-12T21:53:06.073Z,39.20
2017-05-12T21:55:34.401Z,39.20
2017-05-12T21:58:03.481Z,37.87
2017-05-12T22:00:32.191Z,41.40
2017-05-12T22:03:00.609Z,45.28
2017-05-12T22:05:35.828Z,38.83
2017-05-12T22:08:04.651Z,44.87
2017-05-12T22:10:33.009Z,38.50
2017-05-12T22:13:02.207Z,40.85
2017-05-12T22:15:30.575Z,40.80
2017-05-12T22:18:00.171Z,35.95
2017-05-12T22:20:28.551Z,35.85
2017-05-12T22:22:57.017Z,36.45
2017-05-12T22:25:26.160Z,41.07
2017-05-12T22:27:54.492Z,39.12
2017-05-12T22:30:22.831Z,38.80
2017-05-12T22:32:51.316Z,35.62
2017-05-12T22:35:19.660Z,37.25
2017-05-12T22:37:48.002Z,39.10
2017-05-12T22:40:17.315Z,34.65
2017-05-12T22:42:45.645Z,36.60
2017-05-12T22:45:13.980Z,35.83
2017-05-12T22:47:42.473Z,34.00
2017-05-12T22:50:10.844Z,37.12
2017-05-12T22:52:39.189Z,36.57
2017-05-12T22:55:08.441Z,35.78
2017-05-12T22:57:36.779Z,35.12
2017-05-12T23:00:05.166Z,34.28
2017-05-12T23:02:34.417Z,35.98
2017-05-12T23:05:02.748Z,35.20
2017-05-12T23:07:32.416Z,37.12
2017-05-12T23:10:00.897Z,37.23
2017-05-12T23:12:29.248Z,37.10
2017-05-12T23:14:57.626Z,37.58
2017-05-12T23:17:26.032Z,34.55
2017-05-12T23:19:54.375Z,33.80
2017-05-12T23:22:22.722Z,35.05
2017-05-12T23:24:51.127Z,34.70
2017-05-12T23:27:19.514Z,33.75
2017-05-12T23:29:47.852Z,36.38
2017-05-12T23:32:16.528Z,33.80
2017-05-12T23:34:45.782Z,33.85
2017-05-12T23:37:14.135Z,33.55
2017-05-12T23:39:42.842Z,31.10
2017-05-12T23:42:11.650Z,33.47
2017-05-12T23:44:40.004Z,29.93
2017-05-12T23:47:08.369Z,31.95
2017-05-12T23:49:36.704Z,30.40
2017-05-12T23:52:05.033Z,29.00
2017-05-12T23:54:33.402Z,29.08
2017-05-12T23:57:01.734Z,30.35
2017-05-12T23:59:30.085Z,28.60
